CheckWX is a tool to help pilots better visualize weather data.  It is not intended as a substitute for an official pre-flight weather briefing.

12:46:03 UTC

KTTN METAR
Trenton Mercer Airport
Trenton, New Jersey, USA
Current

53 mins ago

KTTN 161153Z 19009KT 10SM CLR 21/16 A2990 RMK AO2 SLP119 60000 T02110161 10217 20194 58005
Observed
Jun-16 @ 11:53 UTC
Wind
  • 190° at 9 KTS
Visibility
10 SM
Flight Rules
VFR
Cloud Levels
  • Clear skies
Temperature
21°C / 70°F
Dewpoint
16°C / 61°F
Humidity
73%
Altimeter
29.9" Hg
Pressure
1012.52 hPa
Previous

2 hours ago

KTTN 161053Z 20008KT 10SM CLR 20/15 A2991 RMK AO2 SLP122 T02000150
Observed
Jun-16 @ 10:53 UTC
Wind
  • 200° at 8 KTS
Visibility
10 SM
Flight Rules
VFR
Cloud Levels
  • Clear skies
Temperature
20°C / 68°F
Dewpoint
15°C / 59°F
Humidity
73%
Altimeter
29.91" Hg
Pressure
1012.92 hPa
Previous

3 hours ago

KTTN 160953Z 18007KT 10SM SCT095 20/15 A2991 RMK AO2 RAB0854E05 SLP122 P0000 T02000150
Observed
Jun-16 @ 09:53 UTC
Wind
  • 180° at 7 KTS
Visibility
10 SM
Flight Rules
VFR
Cloud Levels
  • Scattered at 9,500' AGL
Temperature
20°C / 68°F
Dewpoint
15°C / 59°F
Humidity
73%
Altimeter
29.91" Hg
Pressure
1012.92 hPa
Current Rain
0.01"